Time;durP1;ratioP1;P1;durP2;ratioP2;P2;SDS_P1;SDS_P2;PMS_P1;PMS_P2;Temp;Humidity;BMP_temperature;BMP_pressure;BME280_temperature;BME280_humidity;BME280_pressure;Samples;Min_cycle;Max_cycle;Signal;HPM_P1;HPM_P2
2022/01/31 05:11:55;;;;;;;;;;;;;;;4.21;79.61;97366.19;4264403;27;10149;-79
2022/01/31 05:13:57;;;;;;;;;;;;;;;4.27;80.10;97363.00;4254124;27;6335;-79
2022/01/31 05:15:59;;;;;;;;;;;;;;;4.19;80.47;97381.16;4255281;27;5118;-77
2022/01/31 05:18:01;;;;;;;;;;;;;;;4.24;80.49;97384.22;4262107;27;5596;-79
2022/01/31 05:20:04;;;;;;;;;;;;;;;4.32;80.33;97384.34;4247243;27;5648;-78
2022/01/31 05:22:06;;;;;;;;;;;;;;;4.18;80.27;97390.00;4237072;27;5592;-79
2022/01/31 05:24:07;;;;;;;;;;;;;;;4.03;80.86;97389.59;4264901;27;5763;-79
2022/01/31 05:26:09;;;;;;;;;;;;;;;4.03;80.29;97386.97;4255857;27;5818;-79
2022/01/31 05:28:10;;;;;;;;;;;;;;;3.86;80.33;97388.50;4240840;27;5107;-79
2022/01/31 05:30:12;;;;;;;;;;;;;;;3.74;80.65;97402.66;4260378;27;5578;-79
2022/01/31 05:32:13;;;;;;;;;;;;;;;3.75;80.10;97401.69;4240959;27;5608;-79
2022/01/31 05:34:15;;;;;;;;;;;;;;;3.68;80.48;97397.97;4237343;27;6453;-79
2022/01/31 05:36:17;;;;;;;;;;;;;;;3.62;80.61;97385.41;4261060;27;5597;-79
2022/01/31 05:38:19;;;;;;;;;;;;;;;3.62;80.64;97390.63;4266067;27;5581;-79
2022/01/31 05:40:22;;;;;;;;;;;;;;;3.56;81.70;97393.81;4260076;27;5683;-79
2022/01/31 05:42:24;;;;;;;;;;;;;;;3.64;81.50;97391.34;4249610;27;5686;-78
2022/01/31 05:44:26;;;;;;;;;;;;;;;3.72;81.34;97381.03;4255886;27;5734;-79
2022/01/31 05:46:28;;;;;;;;;;;;;;;3.76;81.57;97379.81;4248791;27;5777;-79
2022/01/31 05:48:29;;;;;;;;;;;;;;;3.79;82.08;97395.22;4256772;27;5632;-78
2022/01/31 05:50:31;;;;;;;;;;;;;;;3.82;81.77;97405.41;4242713;27;5668;-78
2022/01/31 05:52:33;;;;;;;;;;;;;;;3.91;82.13;97407.22;4259697;27;5619;-78
2022/01/31 05:54:37;;;;;;;;;;;;;;;3.97;81.77;97406.69;4263223;27;5698;-78
2022/01/31 05:56:38;;;;;;;;;;;;;;;4.07;81.64;97397.00;4259778;27;5597;-79
2022/01/31 05:58:41;;;;;;;;;;;;;;;4.05;81.49;97396.34;4263601;27;6275;-79
2022/01/31 06:00:43;;;;;;;;;;;;;;;4.00;81.41;97401.16;4271168;27;5739;-78
2022/01/31 06:02:51;;;;;;;;;;;;;;;3.98;81.82;97405.72;4261289;27;5799;-79
2022/01/31 06:04:52;;;;;;;;;;;;;;;4.02;81.49;97391.38;4263475;27;5749;-79
2022/01/31 06:06:54;;;;;;;;;;;;;;;4.05;81.38;97393.72;4260685;27;5604;-79
2022/01/31 06:08:56;;;;;;;;;;;;;;;4.04;81.19;97386.00;4253091;27;6303;-79
2022/01/31 06:10:58;;;;;;;;;;;;;;;4.04;81.42;97365.91;4263692;27;5809;-78
2022/01/31 06:12:59;;;;;;;;;;;;;;;3.88;81.70;97364.81;4264642;27;5586;-79
2022/01/31 06:15:01;;;;;;;;;;;;;;;3.98;80.73;97361.22;4259770;27;5671;-79
2022/01/31 06:17:03;;;;;;;;;;;;;;;4.15;79.85;97366.72;4274151;27;5582;-78
2022/01/31 06:19:05;;;;;;;;;;;;;;;4.21;78.95;97366.19;4270753;22;5795;-79
2022/01/31 06:21:07;;;;;;;;;;;;;;;4.23;78.59;97366.88;4230535;27;5706;-78
2022/01/31 06:23:08;;;;;;;;;;;;;;;4.27;77.90;97358.56;4241280;27;5904;-79
2022/01/31 06:25:11;;;;;;;;;;;;;;;4.31;77.03;97346.88;4232996;27;5612;-77
2022/01/31 06:27:13;;;;;;;;;;;;;;;4.33;76.71;97333.66;4225807;27;5648;-73
2022/01/31 06:29:15;;;;;;;;;;;;;;;4.36;76.79;97333.34;4232713;27;5612;-75
2022/01/31 06:31:16;;;;;;;;;;;;;;;4.45;76.36;97327.28;4205975;28;5726;-73
2022/01/31 06:33:19;;;;;;;;;;;;;;;4.52;75.87;97335.38;4226684;28;5742;-75
2022/01/31 06:35:21;;;;;;;;;;;;;;;4.45;76.09;97329.91;4226319;28;5609;-73
2022/01/31 06:37:23;;;;;;;;;;;;;;;4.45;76.00;97329.91;4236711;27;5679;-74
2022/01/31 06:39:24;;;;;;;;;;;;;;;4.49;74.82;97336.50;4228116;27;5660;-73
2022/01/31 06:41:26;;;;;;;;;;;;;;;4.52;75.83;97338.00;4223995;28;5885;-79
2022/01/31 06:43:28;;;;;;;;;;;;;;;4.62;75.77;97333.56;4226204;27;5605;-81
2022/01/31 06:45:30;;;;;;;;;;;;;;;4.58;75.50;97335.66;4223124;28;5604;-81
2022/01/31 06:47:37;;;;;;;;;;;;;;;4.54;74.79;97342.16;4237259;28;5596;-83
2022/01/31 06:49:39;;;;;;;;;;;;;;;4.58;75.34;97351.34;4203195;28;5749;-76
2022/01/31 06:51:40;;;;;;;;;;;;;;;4.67;74.55;97347.91;4220012;28;5612;-75
2022/01/31 06:53:42;;;;;;;;;;;;;;;4.71;74.41;97350.22;4202147;28;5741;-75
2022/01/31 06:55:44;;;;;;;;;;;;;;;4.70;74.24;97361.66;4219279;28;5796;-77
2022/01/31 06:57:47;;;;;;;;;;;;;;;4.71;74.48;97364.13;4224119;27;5608;-76
2022/01/31 06:59:49;;;;;;;;;;;;;;;4.80;74.10;97365.09;4226903;28;6609;-75
2022/01/31 07:01:50;;;;;;;;;;;;;;;4.82;73.74;97371.00;4220341;28;5647;-73
2022/01/31 07:03:54;;;;;;;;;;;;;;;4.78;74.20;97364.41;4234000;27;5742;-76
2022/01/31 07:05:55;;;;;;;;;;;;;;;4.80;74.57;97380.81;4215663;28;5727;-76
2022/01/31 07:07:57;;;;;;;;;;;;;;;4.81;74.76;97374.59;4229096;28;5604;-77
2022/01/31 07:10:01;;;;;;;;;;;;;;;4.88;74.46;97379.13;4227597;28;5722;-78
2022/01/31 07:12:05;;;;;;;;;;;;;;;4.86;75.25;97374.97;4225318;27;5700;-78
2022/01/31 07:14:29;;;;;;;;;;;;;;;4.92;75.48;97387.53;4229448;28;5728;-77
2022/01/31 07:16:29;;;;;;;;;;;;;;;4.90;75.95;97378.97;4231724;28;5699;-77
2022/01/31 07:18:32;;;;;;;;;;;;;;;4.83;76.74;97377.88;4223416;28;5604;-77
2022/01/31 07:20:39;;;;;;;;;;;;;;;4.94;75.97;97382.94;4226689;27;5687;-78
2022/01/31 07:22:48;;;;;;;;;;;;;;;4.99;76.01;97383.38;4219936;28;5607;-75
2022/01/31 07:25:01;;;;;;;;;;;;;;;5.02;75.66;97390.09;4226488;28;5601;-78
2022/01/31 07:27:04;;;;;;;;;;;;;;;5.04;75.01;97380.31;4237118;28;5612;-78
2022/01/31 07:29:06;;;;;;;;;;;;;;;4.90;74.03;97374.56;4232959;28;5592;-75
2022/01/31 07:31:08;;;;;;;;;;;;;;;4.91;74.95;97370.16;4231523;27;5723;-75
2022/01/31 07:33:12;;;;;;;;;;;;;;;4.90;75.35;97360.63;4217413;28;5997;-74
2022/01/31 07:35:15;;;;;;;;;;;;;;;4.97;74.73;97362.53;4232137;28;5669;-80
2022/01/31 07:37:16;;;;;;;;;;;;;;;5.00;74.28;97352.75;4252584;27;5599;-74
2022/01/31 07:39:19;;;;;;;;;;;;;;;4.97;73.43;97357.28;4235951;27;5805;-73
2022/01/31 07:41:21;;;;;;;;;;;;;;;4.93;73.88;97348.06;4222987;27;5092;-74
2022/01/31 07:43:23;;;;;;;;;;;;;;;5.06;73.71;97347.72;4221336;28;7728;-75
2022/01/31 07:45:26;;;;;;;;;;;;;;;5.07;73.41;97348.56;4205059;28;5858;-74
2022/01/31 07:47:29;;;;;;;;;;;;;;;4.96;73.02;97349.56;4202468;28;5762;-78
2022/01/31 07:49:31;;;;;;;;;;;;;;;4.99;72.12;97341.44;4239100;27;5629;-76
2022/01/31 07:51:35;;;;;;;;;;;;;;;4.94;72.91;97339.22;4236072;28;5659;-75
2022/01/31 07:53:38;;;;;;;;;;;;;;;5.00;73.04;97337.84;4232627;28;7295;-75
2022/01/31 07:55:40;;;;;;;;;;;;;;;5.08;72.56;97332.69;4222990;28;5724;-74
2022/01/31 07:57:43;;;;;;;;;;;;;;;5.08;72.60;97324.00;4217208;28;5713;-75
2022/01/31 07:59:45;;;;;;;;;;;;;;;5.14;72.55;97326.03;4235106;28;5750;-74
2022/01/31 08:01:47;;;;;;;;;;;;;;;5.14;73.17;97328.66;4224241;27;5749;-74
2022/01/31 08:03:49;;;;;;;;;;;;;;;5.21;73.33;97329.75;4200940;28;5761;-75
2022/01/31 08:05:51;;;;;;;;;;;;;;;5.21;72.47;97309.59;4249814;27;5698;-77
2022/01/31 08:07:53;;;;;;;;;;;;;;;5.07;73.42;97299.59;4237379;27;5644;-77
2022/01/31 08:09:55;;;;;;;;;;;;;;;5.11;73.75;97289.66;4222198;28;5621;-74
2022/01/31 08:11:57;;;;;;;;;;;;;;;5.15;73.17;97297.06;4228273;28;5608;-77
2022/01/31 08:14:05;;;;;;;;;;;;;;;5.17;72.53;97297.75;4225716;28;5603;-77
2022/01/31 08:18:11;;;;;;;;;;;;;;;5.15;73.94;97299.69;4228241;28;5597;-79
2022/01/31 08:20:18;;;;;;;;;;;;;;;5.06;74.64;97291.88;4232216;27;5614;-76
2022/01/31 08:22:19;;;;;;;;;;;;;;;5.18;74.49;97288.91;4191541;28;5858;-76
2022/01/31 08:24:21;;;;;;;;;;;;;;;5.24;74.13;97282.25;4228501;27;5682;-75
2022/01/31 08:26:28;;;;;;;;;;;;;;;5.24;73.01;97284.88;4212170;28;5713;-77
2022/01/31 08:28:40;;;;;;;;;;;;;;;5.23;73.45;97268.34;4204371;28;5841;-75
2022/01/31 08:30:51;;;;;;;;;;;;;;;5.18;72.34;97262.69;4200903;28;5938;-79
2022/01/31 08:33:01;;;;;;;;;;;;;;;5.11;72.61;97252.97;4229300;28;5704;-76
2022/01/31 08:37:30;;;;;;;;;;;;;;;5.31;71.28;97245.78;4174049;27;5728;-77
2022/01/31 08:39:32;;;;;;;;;;;;;;;5.36;72.90;97241.75;4214856;28;5732;-77
2022/01/31 08:41:33;;;;;;;;;;;;;;;5.15;75.84;97251.69;4229531;28;5742;-76
2022/01/31 08:43:36;;;;;;;;;;;;;;;5.26;75.81;97244.44;4219372;27;5746;-75
2022/01/31 08:45:38;;;;;;;;;;;;;;;5.31;75.33;97240.53;4228714;28;5626;-75
2022/01/31 08:47:41;;;;;;;;;;;;;;;5.38;74.54;97241.59;4204529;28;5912;-74
2022/01/31 08:49:43;;;;;;;;;;;;;;;5.33;75.10;97228.13;4184537;28;5762;-74
2022/01/31 08:51:45;;;;;;;;;;;;;;;5.32;75.29;97229.06;4233639;28;5648;-74
2022/01/31 08:53:48;;;;;;;;;;;;;;;5.42;74.74;97233.25;4231295;28;5612;-75
2022/01/31 08:55:53;;;;;;;;;;;;;;;5.30;75.77;97234.47;4228150;28;5608;-73
2022/01/31 08:57:56;;;;;;;;;;;;;;;5.25;77.24;97231.47;4183575;28;5834;-74
2022/01/31 09:00:00;;;;;;;;;;;;;;;5.16;77.32;97227.13;4229016;28;5800;-77
2022/01/31 09:02:10;;;;;;;;;;;;;;;5.09;78.16;97211.16;4226531;28;5615;-74
2022/01/31 09:04:19;;;;;;;;;;;;;;;5.07;78.88;97207.88;4197250;28;5745;-73
2022/01/31 09:06:23;;;;;;;;;;;;;;;4.97;79.19;97204.47;4231103;28;5604;-72
2022/01/31 09:08:25;;;;;;;;;;;;;;;4.98;79.37;97195.66;4231037;27;5656;-73
2022/01/31 09:10:26;;;;;;;;;;;;;;;4.96;79.91;97192.34;4235279;28;5717;-73
2022/01/31 09:12:31;;;;;;;;;;;;;;;4.92;80.41;97210.19;4221859;28;5635;-70
2022/01/31 09:14:33;;;;;;;;;;;;;;;5.00;80.21;97212.06;4213006;28;5705;-69
2022/01/31 09:16:34;;;;;;;;;;;;;;;4.95;80.24;97198.56;4226674;28;5700;-71
2022/01/31 09:18:36;;;;;;;;;;;;;;;4.82;80.55;97213.81;4222723;27;5932;-72
2022/01/31 09:20:38;;;;;;;;;;;;;;;4.58;81.74;97211.75;4202175;28;5730;-73
2022/01/31 09:22:41;;;;;;;;;;;;;;;4.50;82.22;97211.66;4234282;28;5715;-73
2022/01/31 09:24:43;;;;;;;;;;;;;;;4.42;82.80;97212.38;4209695;28;5126;-73
2022/01/31 09:26:47;;;;;;;;;;;;;;;4.35;83.24;97206.06;4225281;28;5612;-73
2022/01/31 09:28:51;;;;;;;;;;;;;;;4.23;84.10;97218.50;4224839;27;5596;-72
2022/01/31 09:30:54;;;;;;;;;;;;;;;4.08;84.63;97210.31;4213586;28;5720;-72
2022/01/31 09:33:03;;;;;;;;;;;;;;;4.00;85.06;97204.94;4227354;27;5607;-78
2022/01/31 09:35:05;;;;;;;;;;;;;;;3.99;85.91;97205.91;4197480;28;5843;-79
2022/01/31 09:37:07;;;;;;;;;;;;;;;3.98;85.67;97209.50;4193366;28;5849;-69
2022/01/31 09:39:09;;;;;;;;;;;;;;;3.94;85.90;97196.84;4233450;28;6318;-75
2022/01/31 09:41:15;;;;;;;;;;;;;;;3.90;86.25;97198.91;4200119;28;5778;-77
2022/01/31 09:45:36;;;;;;;;;;;;;;;3.96;86.21;97182.63;4234013;28;5805;-76
2022/01/31 09:49:58;;;;;;;;;;;;;;;4.06;87.40;97182.59;4209469;28;5892;-78
2022/01/31 09:52:00;;;;;;;;;;;;;;;4.12;86.60;97176.00;4231038;28;5723;-75
2022/01/31 09:54:03;;;;;;;;;;;;;;;4.08;86.69;97168.44;4222777;28;5735;-75
2022/01/31 09:56:10;;;;;;;;;;;;;;;4.02;87.68;97169.00;4212549;28;6094;-79
2022/01/31 09:58:11;;;;;;;;;;;;;;;3.91;88.05;97166.56;4217813;28;5891;-78
2022/01/31 10:00:14;;;;;;;;;;;;;;;3.89;88.39;97168.50;4236951;28;5679;-75
2022/01/31 10:02:15;;;;;;;;;;;;;;;3.87;89.03;97170.44;4234454;28;5700;-78
2022/01/31 10:04:25;;;;;;;;;;;;;;;4.02;88.51;97168.19;4204909;28;5700;-78
2022/01/31 10:06:33;;;;;;;;;;;;;;;4.05;87.95;97179.16;4238638;28;5822;-78
2022/01/31 10:08:34;;;;;;;;;;;;;;;4.08;88.17;97172.84;4240870;28;5596;-75
2022/01/31 10:10:42;;;;;;;;;;;;;;;3.99;88.71;97174.53;4229613;28;5617;-77
2022/01/31 10:17:27;;;;;;;;;;;;;;;4.01;88.30;97188.28;4222859;27;5812;-75
2022/01/31 10:19:44;;;;;;;;;;;;;;;4.04;88.34;97185.38;4224131;28;6147;-75
2022/01/31 10:22:02;;;;;;;;;;;;;;;4.05;88.21;97180.97;4229793;27;5684;-76
2022/01/31 10:24:15;;;;;;;;;;;;;;;4.08;88.54;97171.06;4216654;28;5887;-78
2022/01/31 10:26:30;;;;;;;;;;;;;;;4.09;88.91;97169.25;4236469;28;5659;-77
2022/01/31 10:28:39;;;;;;;;;;;;;;;4.10;89.12;97160.44;4233008;28;6288;-74
2022/01/31 10:30:43;;;;;;;;;;;;;;;4.09;89.07;97171.88;4239610;28;5588;-77
2022/01/31 10:32:47;;;;;;;;;;;;;;;4.04;89.98;97182.75;4214950;28;5122;-80
2022/01/31 10:34:52;;;;;;;;;;;;;;;4.08;89.13;97180.69;4218690;28;5889;-77
2022/01/31 10:36:54;;;;;;;;;;;;;;;4.17;89.27;97181.59;4228118;28;5612;-80
2022/01/31 10:39:14;;;;;;;;;;;;;;;4.24;89.13;97173.06;4233285;28;5691;-74
2022/01/31 10:44:56;;;;;;;;;;;;;;;4.29;89.17;97164.75;4221731;28;5625;-73
2022/01/31 10:53:55;;;;;;;;;;;;;;;4.53;88.25;97167.69;4235059;28;5604;-72
2022/01/31 10:55:58;;;;;;;;;;;;;;;4.40;87.89;97177.66;4207129;28;5960;-73
2022/01/31 10:58:10;;;;;;;;;;;;;;;4.34;88.10;97168.59;4224551;27;5635;-72
2022/01/31 11:00:12;;;;;;;;;;;;;;;4.44;87.79;97167.72;4227630;27;5637;-71
2022/01/31 11:02:19;;;;;;;;;;;;;;;4.50;87.32;97175.81;4231294;27;6309;-72
2022/01/31 11:04:22;;;;;;;;;;;;;;;4.52;88.17;97166.00;4231350;27;5596;-72
2022/01/31 11:06:24;;;;;;;;;;;;;;;4.44;88.75;97162.50;4215661;28;6065;-72
2022/01/31 11:08:28;;;;;;;;;;;;;;;4.61;87.55;97151.22;4236312;27;5625;-73
2022/01/31 11:10:30;;;;;;;;;;;;;;;4.71;87.57;97153.78;4231211;27;5630;-73
2022/01/31 11:12:32;;;;;;;;;;;;;;;4.90;87.06;97149.25;4212232;28;5714;-73
2022/01/31 11:14:38;;;;;;;;;;;;;;;5.06;86.54;97161.66;4230711;27;5186;-72
2022/01/31 11:16:43;;;;;;;;;;;;;;;5.14;85.88;97153.88;4232640;27;7842;-72
2022/01/31 11:18:47;;;;;;;;;;;;;;;5.00;86.45;97153.59;4223743;27;5607;-73
2022/01/31 11:20:56;;;;;;;;;;;;;;;5.11;85.69;97154.19;4210145;28;5828;-72
2022/01/31 11:23:00;;;;;;;;;;;;;;;5.06;84.35;97151.19;4233250;28;5630;-71
2022/01/31 11:25:05;;;;;;;;;;;;;;;4.91;85.06;97145.66;4228330;27;5623;-71
2022/01/31 11:27:27;;;;;;;;;;;;;;;4.63;85.85;97129.16;4230541;28;5657;-71
2022/01/31 11:29:32;;;;;;;;;;;;;;;4.82;85.67;97127.38;4227038;27;5602;-71
2022/01/31 11:31:36;;;;;;;;;;;;;;;4.91;85.35;97129.13;4220777;27;5755;-71
2022/01/31 11:33:39;;;;;;;;;;;;;;;4.81;86.08;97123.13;4209869;28;5692;-72
2022/01/31 11:35:40;;;;;;;;;;;;;;;4.82;85.78;97130.00;4232630;27;5736;-73
2022/01/31 11:37:43;;;;;;;;;;;;;;;4.89;85.48;97133.69;4227102;27;5734;-72
2022/01/31 11:39:52;;;;;;;;;;;;;;;4.93;85.58;97124.53;4211607;28;5716;-72
2022/01/31 11:41:58;;;;;;;;;;;;;;;4.72;85.70;97119.59;4228803;27;5706;-72
2022/01/31 11:44:29;;;;;;;;;;;;;;;4.64;86.53;97112.50;4201388;28;5758;-71
2022/01/31 11:46:33;;;;;;;;;;;;;;;4.87;85.45;97104.16;4201377;27;5602;-72
2022/01/31 11:48:38;;;;;;;;;;;;;;;4.99;84.44;97099.56;4223171;27;5758;-71
2022/01/31 11:50:45;;;;;;;;;;;;;;;4.80;85.04;97082.19;4219790;27;5628;-72
2022/01/31 11:52:54;;;;;;;;;;;;;;;4.88;85.11;97087.50;4223219;27;5377;-73
2022/01/31 11:55:08;;;;;;;;;;;;;;;4.90;84.67;97086.38;4218467;28;7270;-71
2022/01/31 11:57:14;;;;;;;;;;;;;;;4.91;85.61;97079.34;4235866;28;5508;-72
2022/01/31 11:59:21;;;;;;;;;;;;;;;4.94;85.76;97077.22;4235712;28;5519;-72
2022/01/31 12:01:24;;;;;;;;;;;;;;;5.07;85.34;97081.25;4236219;28;5509;-72
2022/01/31 12:03:26;;;;;;;;;;;;;;;5.00;86.07;97072.38;4236139;28;5766;-72
2022/01/31 12:05:31;;;;;;;;;;;;;;;5.13;85.95;97059.69;4232340;28;5604;-73
2022/01/31 12:07:42;;;;;;;;;;;;;;;5.14;86.61;97059.53;4214241;28;5824;-73
2022/01/31 12:09:43;;;;;;;;;;;;;;;5.24;86.21;97067.31;4215978;28;5728;-72
2022/01/31 12:11:53;;;;;;;;;;;;;;;5.19;86.13;97044.16;4225398;28;6318;-70
2022/01/31 12:14:00;;;;;;;;;;;;;;;5.12;86.56;97029.22;4235477;28;5592;-74
2022/01/31 12:19:29;;;;;;;;;;;;;;;5.03;83.61;97032.75;4226062;28;5592;-76
2022/01/31 12:23:22;;;;;;;;;;;;;;;5.13;81.68;97023.00;4201889;28;5755;-76
2022/01/31 12:25:31;;;;;;;;;;;;;;;5.24;81.67;97015.72;4182719;28;5774;-75
2022/01/31 12:27:32;;;;;;;;;;;;;;;5.28;83.73;97028.50;4184190;28;5771;-76
2022/01/31 12:29:39;;;;;;;;;;;;;;;5.21;85.20;97008.16;4190558;28;5763;-75
2022/01/31 12:31:45;;;;;;;;;;;;;;;5.14;86.55;97014.16;4196563;28;5712;-77
2022/01/31 12:33:48;;;;;;;;;;;;;;;5.09;86.65;97009.38;4169423;28;5668;-75
2022/01/31 12:35:52;;;;;;;;;;;;;;;5.15;86.99;97015.81;4201445;28;5791;-76
2022/01/31 12:37:54;;;;;;;;;;;;;;;5.22;86.30;97016.84;4185353;28;5681;-77
2022/01/31 12:40:18;;;;;;;;;;;;;;;5.28;86.17;97013.59;4199754;28;5701;-75
2022/01/31 12:44:53;;;;;;;;;;;;;;;5.10;85.73;97016.28;4193416;28;5732;-75
2022/01/31 12:47:17;;;;;;;;;;;;;;;5.08;86.75;97010.34;4193230;28;5692;-77
2022/01/31 12:49:19;;;;;;;;;;;;;;;5.14;86.57;97020.22;4196894;28;5641;-73
2022/01/31 12:51:20;;;;;;;;;;;;;;;5.17;86.21;97009.44;4209816;28;5654;-73
2022/01/31 12:53:22;;;;;;;;;;;;;;;5.15;85.86;97015.81;4186154;28;5716;-72
2022/01/31 12:55:27;;;;;;;;;;;;;;;5.14;85.96;97022.03;4200585;28;5696;-75
2022/01/31 12:57:29;;;;;;;;;;;;;;;5.02;85.53;97029.31;4192475;28;5813;-74
2022/01/31 12:59:31;;;;;;;;;;;;;;;4.94;86.05;97043.16;4188068;28;5995;-78
2022/01/31 13:01:36;;;;;;;;;;;;;;;4.80;86.29;97048.94;4196758;28;5913;-71
2022/01/31 13:03:40;;;;;;;;;;;;;;;4.78;86.53;97044.84;4197567;28;5747;-71
2022/01/31 13:05:49;;;;;;;;;;;;;;;4.81;87.18;97057.63;4203662;28;5691;-76
2022/01/31 13:07:52;;;;;;;;;;;;;;;4.81;87.74;97065.50;4200629;28;5702;-78
2022/01/31 13:09:53;;;;;;;;;;;;;;;4.79;88.04;97059.59;4199299;28;5797;-71
2022/01/31 13:12:04;;;;;;;;;;;;;;;4.79;87.56;97049.09;4214427;28;5707;-72
2022/01/31 13:14:09;;;;;;;;;;;;;;;4.82;87.57;97051.41;4196088;28;5721;-74
2022/01/31 13:17:10;;;;;;;;;;;;;;;4.81;86.75;97057.63;4185842;28;5831;-70
2022/01/31 13:19:14;;;;;;;;;;;;;;;4.70;87.42;97058.69;4205261;27;5608;-70
2022/01/31 13:21:20;;;;;;;;;;;;;;;4.64;87.82;97049.66;4209151;28;5846;-69
2022/01/31 13:23:22;;;;;;;;;;;;;;;4.70;87.74;97042.16;4231564;28;5715;-75
2022/01/31 13:25:24;;;;;;;;;;;;;;;4.77;86.77;97044.03;4188200;28;5761;-70
2022/01/31 13:27:42;;;;;;;;;;;;;;;4.82;86.18;97044.38;4229059;28;5601;-69
2022/01/31 13:29:51;;;;;;;;;;;;;;;4.83;87.04;97038.16;4220067;28;5716;-70
2022/01/31 13:31:52;;;;;;;;;;;;;;;4.92;86.39;97036.44;4232347;28;5692;-72
2022/01/31 13:34:00;;;;;;;;;;;;;;;4.82;85.58;97033.09;4218047;28;5639;-72
2022/01/31 13:36:03;;;;;;;;;;;;;;;4.81;84.95;97034.06;4237620;27;5608;-73
2022/01/31 13:38:07;;;;;;;;;;;;;;;4.70;85.65;97021.19;4232795;28;5815;-73
2022/01/31 13:40:21;;;;;;;;;;;;;;;4.50;85.06;97016.09;4233300;28;5612;-71
2022/01/31 13:42:25;;;;;;;;;;;;;;;4.75;84.03;97019.75;4209486;28;6073;-72
2022/01/31 13:44:28;;;;;;;;;;;;;;;4.82;84.05;97033.09;4223427;27;5719;-72
2022/01/31 13:46:37;;;;;;;;;;;;;;;4.70;85.77;97042.16;4232052;28;5679;-71
2022/01/31 13:48:48;;;;;;;;;;;;;;;4.86;83.19;97039.66;4240342;27;6271;-72
2022/01/31 13:50:58;;;;;;;;;;;;;;;4.87;83.82;97033.44;4220156;28;5931;-71
2022/01/31 13:53:10;;;;;;;;;;;;;;;4.97;82.94;97040.25;4232655;27;5720;-72
2022/01/31 13:55:11;;;;;;;;;;;;;;;4.98;82.08;97048.91;4227934;27;6418;-72
2022/01/31 13:57:13;;;;;;;;;;;;;;;4.88;79.51;97050.84;4217476;28;5732;-71
2022/01/31 13:59:25;;;;;;;;;;;;;;;5.07;79.24;97060.28;4204246;28;5741;-72
2022/01/31 14:01:28;;;;;;;;;;;;;;;5.11;71.22;97061.66;4225075;27;5615;-72
2022/01/31 14:03:40;;;;;;;;;;;;;;;5.04;69.96;97071.09;4231307;27;5597;-72
2022/01/31 14:05:54;;;;;;;;;;;;;;;5.12;71.36;97077.22;4224965;27;5772;-71
2022/01/31 14:08:04;;;;;;;;;;;;;;;5.01;72.99;97072.22;4201984;28;5734;-72
2022/01/31 14:10:27;;;;;;;;;;;;;;;4.40;75.86;97080.78;4237765;28;5709;-72
2022/01/31 14:12:28;;;;;;;;;;;;;;;4.50;77.26;97078.94;4221388;28;5155;-72
2022/01/31 14:14:30;;;;;;;;;;;;;;;4.54;78.21;97069.84;4236308;28;7157;-72
2022/01/31 14:16:40;;;;;;;;;;;;;;;4.58;77.09;97071.19;4237890;28;5699;-71
2022/01/31 14:18:47;;;;;;;;;;;;;;;4.72;77.54;97066.38;4218156;28;5820;-71
2022/01/31 14:20:55;;;;;;;;;;;;;;;4.53;78.82;97075.19;4229286;27;5795;-71
2022/01/31 14:23:02;;;;;;;;;;;;;;;4.68;78.27;97058.84;4232766;27;5636;-71
2022/01/31 14:25:09;;;;;;;;;;;;;;;4.71;78.81;97060.31;4218279;28;5623;-70
2022/01/31 14:27:10;;;;;;;;;;;;;;;4.74;79.01;97061.81;4236282;28;5604;-70
2022/01/31 14:29:16;;;;;;;;;;;;;;;4.62;79.08;97051.56;4235356;28;5654;-70
2022/01/31 14:31:32;;;;;;;;;;;;;;;4.44;79.43;97063.03;4232632;27;5690;-70
2022/01/31 14:33:45;;;;;;;;;;;;;;;4.32;80.28;97062.41;4231591;28;5861;-70
2022/01/31 14:35:49;;;;;;;;;;;;;;;4.25;80.51;97070.00;4236849;28;5747;-70
2022/01/31 14:37:52;;;;;;;;;;;;;;;4.20;80.66;97071.44;4231189;27;5599;-71
2022/01/31 14:40:08;;;;;;;;;;;;;;;4.04;80.71;97064.19;4231358;28;5611;-71
2022/01/31 14:48:59;;;;;;;;;;;;;;;4.22;80.65;97048.56;4227087;28;5600;-71
2022/01/31 14:51:00;;;;;;;;;;;;;;;4.31;80.08;97039.81;4236155;28;5597;-71
2022/01/31 14:53:09;;;;;;;;;;;;;;;4.26;78.88;97040.25;4232066;27;5737;-71
2022/01/31 14:55:13;;;;;;;;;;;;;;;4.24;79.03;97041.38;4224032;28;5608;-71
2022/01/31 14:57:15;;;;;;;;;;;;;;;4.22;79.09;97044.16;4235571;27;5743;-72
2022/01/31 14:59:17;;;;;;;;;;;;;;;4.24;79.14;97041.38;4237930;28;5083;-70
2022/01/31 15:01:24;;;;;;;;;;;;;;;4.32;79.38;97038.84;4230418;28;7678;-70
2022/01/31 15:03:26;;;;;;;;;;;;;;;4.32;77.41;97025.75;4236006;28;5678;-71
2022/01/31 15:05:28;;;;;;;;;;;;;;;4.31;78.60;97039.81;4231689;28;5715;-72
2022/01/31 15:07:34;;;;;;;;;;;;;;;4.38;77.89;97040.88;4223044;27;5617;-71
2022/01/31 15:09:37;;;;;;;;;;;;;;;4.42;78.18;97050.09;4236526;28;5597;-72
2022/01/31 15:11:39;;;;;;;;;;;;;;;4.48;78.10;97054.72;4202917;28;5801;-72
2022/01/31 15:13:43;;;;;;;;;;;;;;;4.58;77.95;97045.00;4231009;28;5720;-72
2022/01/31 15:15:50;;;;;;;;;;;;;;;4.59;77.76;97046.63;4234042;27;5605;-70
2022/01/31 15:17:54;;;;;;;;;;;;;;;4.66;77.40;97050.31;4236122;27;5600;-71
2022/01/31 15:19:55;;;;;;;;;;;;;;;4.75;77.33;97066.06;4218748;28;5823;-71
2022/01/31 15:21:57;;;;;;;;;;;;;;;4.66;76.96;97060.78;4219465;28;5708;-72
2022/01/31 15:24:03;;;;;;;;;;;;;;;4.72;77.78;97061.16;4234803;27;5659;-71
2022/01/31 15:26:09;;;;;;;;;;;;;;;4.64;77.67;97062.75;4200934;28;5884;-72
2022/01/31 15:28:11;;;;;;;;;;;;;;;4.80;76.62;97048.13;4233112;27;5649;-71
2022/01/31 15:30:14;;;;;;;;;;;;;;;4.53;76.61;97060.34;4228016;28;5600;-71
2022/01/31 15:32:15;;;;;;;;;;;;;;;4.57;78.00;97053.81;4219998;28;5600;-71
2022/01/31 15:34:23;;;;;;;;;;;;;;;4.54;78.82;97046.28;4237129;27;5661;-71
2022/01/31 15:36:25;;;;;;;;;;;;;;;4.54;79.89;97048.06;4224300;28;5744;-72
2022/01/31 15:38:27;;;;;;;;;;;;;;;4.62;79.95;97045.50;4208458;28;5755;-72
2022/01/31 15:40:29;;;;;;;;;;;;;;;4.65;80.09;97040.00;4203787;28;5747;-72
2022/01/31 15:42:31;;;;;;;;;;;;;;;4.63;80.08;97037.50;4229993;27;5593;-72
2022/01/31 15:44:40;;;;;;;;;;;;;;;4.54;80.77;97037.59;4223698;27;5840;-72
2022/01/31 15:46:43;;;;;;;;;;;;;;;4.59;80.73;97038.78;4230533;27;5639;-69
2022/01/31 15:48:47;;;;;;;;;;;;;;;4.61;80.59;97044.69;4230244;28;5606;-71
2022/01/31 15:50:49;;;;;;;;;;;;;;;4.64;79.98;97060.13;4227259;28;5823;-70
2022/01/31 15:52:53;;;;;;;;;;;;;;;4.70;79.62;97056.06;4231657;27;5612;-70
2022/01/31 15:54:55;;;;;;;;;;;;;;;4.73;79.61;97062.78;4214848;28;5804;-70
2022/01/31 15:57:24;;;;;;;;;;;;;;;4.53;79.79;97073.44;4212899;28;5780;-70
2022/01/31 15:59:31;;;;;;;;;;;;;;;4.53;79.84;97075.19;4227293;28;5688;-71
2022/01/31 16:01:35;;;;;;;;;;;;;;;4.22;79.58;97085.19;4232237;28;5711;-71
2022/01/31 16:03:37;;;;;;;;;;;;;;;4.28;76.95;97097.69;4222668;28;6472;-72
2022/01/31 16:05:39;;;;;;;;;;;;;;;3.86;78.39;97089.50;4218813;28;5867;-71
2022/01/31 16:07:45;;;;;;;;;;;;;;;4.02;78.21;97090.50;4231750;28;5676;-71
2022/01/31 16:09:49;;;;;;;;;;;;;;;4.09;77.51;97085.53;4229586;28;5684;-71
2022/01/31 16:11:56;;;;;;;;;;;;;;;3.97;77.56;97091.94;4223287;27;5714;-76
2022/01/31 16:14:18;;;;;;;;;;;;;;;3.84;79.09;97102.69;4215166;28;5960;-75
2022/01/31 16:16:20;;;;;;;;;;;;;;;3.75;79.79;97103.59;4220821;27;5761;-75
2022/01/31 16:18:23;;;;;;;;;;;;;;;3.66;80.07;97107.88;4231838;28;5866;-76
2022/01/31 16:20:25;;;;;;;;;;;;;;;3.67;80.89;97106.91;4229407;28;5866;-76
2022/01/31 16:22:27;;;;;;;;;;;;;;;3.66;80.63;97120.13;4219889;27;5642;-76
2022/01/31 16:24:30;;;;;;;;;;;;;;;3.68;80.64;97128.63;4201141;28;5770;-75
2022/01/31 16:26:32;;;;;;;;;;;;;;;3.63;81.58;97130.88;4209843;28;5764;-76
2022/01/31 16:28:33;;;;;;;;;;;;;;;3.58;81.63;97144.34;4230835;28;5676;-76
2022/01/31 16:30:37;;;;;;;;;;;;;;;3.61;81.51;97136.22;4223687;28;5715;-68
2022/01/31 16:32:40;;;;;;;;;;;;;;;3.59;82.10;97139.94;4218025;28;5939;-67
2022/01/31 16:34:42;;;;;;;;;;;;;;;3.58;81.86;97154.81;4219802;28;5734;-69
2022/01/31 16:36:44;;;;;;;;;;;;;;;3.44;81.87;97150.84;4226956;28;5808;-70
2022/01/31 16:38:48;;;;;;;;;;;;;;;3.46;81.95;97143.69;4225228;27;5756;-70
2022/01/31 16:40:51;;;;;;;;;;;;;;;3.41;82.14;97151.13;4226590;27;5730;-69
2022/01/31 16:42:54;;;;;;;;;;;;;;;3.35;82.19;97154.28;4227665;27;5607;-70
2022/01/31 16:44:56;;;;;;;;;;;;;;;3.35;81.76;97156.91;4223824;27;5809;-70
2022/01/31 16:47:05;;;;;;;;;;;;;;;3.35;81.64;97158.69;4220726;27;5908;-70
2022/01/31 16:49:09;;;;;;;;;;;;;;;3.29;81.45;97151.41;4225650;27;5826;-68
2022/01/31 16:51:12;;;;;;;;;;;;;;;3.22;81.93;97158.97;4223262;27;6412;-70
2022/01/31 16:53:17;;;;;;;;;;;;;;;3.19;81.88;97165.31;4213542;28;6429;-68
2022/01/31 16:55:22;;;;;;;;;;;;;;;3.20;82.26;97166.13;4211015;28;5931;-70
2022/01/31 16:57:24;;;;;;;;;;;;;;;3.25;82.17;97169.16;4215728;28;5827;-68